Archibald, Louisiana
Current Conditions -  °F | °C
As of 1:53 PM on Tuesday 21 Oct 2014 (Local Time) from KMLU Reporting Station
Clear Clear  
Wind Chill: 79°   Ceiling: Unl
Heat Index: 80°   Visibility: 10mi
Dew Point: 60°   Wind: 0mph
Humidity: 52%   Direction: NA
Pressure: 30.06"   Gusts: NA
Location:  32.35°N, 91.78°W
Report Text: KMLU 211853Z 00000KT 10SM CLR 26/16 A3006 RMK AO2 SLP178 T02610156
Loading
Personal Weather Stations






























Interactive Weather Map
Tropical Storm Tracking
New forecast layout! Learn more

10-Day Weather Forecast

Advertisements
Track Severe Weather on mobile